Time;durP1;ratioP1;P1;durP2;ratioP2;P2;SDS_P1;SDS_P2;PMS_P1;PMS_P2;Temp;Humidity;BMP_temperature;BMP_pressure;BME280_temperature;BME280_humidity;BME280_pressure;Samples;Min_cycle;Max_cycle;Signal;HPM_P1;HPM_P2
2022/11/28 00:01:27;;;;;;;4.82;4.07;;;;;;;6.88;100.00;100972.97;5074103;28;20032;-36
2022/11/28 00:03:52;;;;;;;6.10;4.60;;;;;;;6.94;100.00;100986.44;5074194;28;20028;-35
2022/11/28 00:06:18;;;;;;;4.63;3.97;;;;;;;6.91;100.00;100972.56;5074119;28;20058;-36
2022/11/28 00:08:44;;;;;;;4.53;3.83;;;;;;;6.99;100.00;100982.31;5074224;28;20381;-35
2022/11/28 00:11:11;;;;;;;5.47;4.30;;;;;;;6.99;100.00;100976.94;5073676;28;20028;-36
2022/11/28 00:13:37;;;;;;;7.28;4.40;;;;;;;6.99;100.00;100982.31;5073702;28;20460;-34
2022/11/28 00:16:04;;;;;;;5.75;4.18;;;;;;;6.93;100.00;100965.97;5073551;28;20131;-34
2022/11/28 00:18:30;;;;;;;6.35;3.90;;;;;;;6.93;100.00;100963.28;5073461;28;20373;-35
2022/11/28 00:20:59;;;;;;;7.95;3.92;;;;;;;7.03;100.00;100972.78;5073657;28;20119;-35
2022/11/28 00:23:25;;;;;;;5.68;3.85;;;;;;;7.06;100.00;100975.06;5074025;28;20377;-34
2022/11/28 00:26:01;;;;;;;6.57;4.13;;;;;;;7.02;100.00;100957.69;5073095;28;20025;-35
2022/11/28 00:28:27;;;;;;;3.97;3.45;;;;;;;7.02;100.00;100946.94;5073609;28;20029;-35
2022/11/28 00:30:52;;;;;;;5.85;3.85;;;;;;;7.12;100.00;100961.63;5073672;28;20086;-35
2022/11/28 00:33:17;;;;;;;5.17;3.63;;;;;;;7.12;100.00;100963.50;5073860;28;20040;-35
2022/11/28 00:35:43;;;;;;;5.43;3.67;;;;;;;7.07;100.00;100958.72;5072948;28;20537;-35
2022/11/28 00:38:08;;;;;;;4.47;3.33;;;;;;;7.13;100.00;100971.38;5073833;28;20465;-35
2022/11/28 00:40:33;;;;;;;5.47;3.80;;;;;;;7.11;100.00;100953.78;5073077;28;20473;-34
2022/11/28 00:42:59;;;;;;;4.43;3.47;;;;;;;7.19;100.00;100958.97;5073546;28;20020;-35
2022/11/28 00:45:24;;;;;;;4.87;3.20;;;;;;;7.20;100.00;100957.94;5073236;28;20376;-34
2022/11/28 00:47:50;;;;;;;4.50;3.37;;;;;;;7.23;100.00;100961.03;5072993;28;20028;-35
2022/11/28 00:50:15;;;;;;;5.23;3.50;;;;;;;7.25;100.00;100958.13;5073279;28;20028;-35
2022/11/28 00:52:40;;;;;;;5.70;3.60;;;;;;;7.28;100.00;100957.72;5072980;28;20460;-35
2022/11/28 00:55:06;;;;;;;4.53;3.57;;;;;;;7.31;100.00;100948.41;5073528;28;20500;-35
2022/11/28 00:57:31;;;;;;;5.13;3.22;;;;;;;7.33;100.00;100949.88;5073627;28;20250;-35
2022/11/28 00:59:57;;;;;;;4.00;3.00;;;;;;;7.23;100.00;100927.94;5071594;28;20040;-34
2022/11/28 01:02:22;;;;;;;5.03;2.90;;;;;;;7.31;100.00;100941.16;5073284;28;20020;-35
2022/11/28 01:04:47;;;;;;;4.13;2.90;;;;;;;7.33;100.00;100922.97;5072776;28;20105;-35
2022/11/28 01:07:13;;;;;;;4.07;3.03;;;;;;;7.38;100.00;100931.25;5072766;28;20328;-35
2022/11/28 01:09:38;;;;;;;3.37;2.83;;;;;;;7.47;100.00;100939.94;5072870;28;20021;-35
2022/11/28 01:12:03;;;;;;;3.63;3.07;;;;;;;7.46;100.00;100933.69;5072945;28;20032;-35
2022/11/28 01:14:29;;;;;;;3.30;2.80;;;;;;;7.44;100.00;100930.41;5073358;28;20029;-35
2022/11/28 01:16:54;;;;;;;3.55;3.08;;;;;;;7.44;100.00;100941.16;5073098;28;20274;-35
2022/11/28 01:19:21;;;;;;;4.88;3.05;;;;;;;7.42;100.00;100937.88;5073255;28;20114;-35
2022/11/28 01:21:46;;;;;;;4.33;2.90;;;;;;;7.41;100.00;100941.56;5072712;28;20067;-34
2022/11/28 01:24:13;;;;;;;6.03;3.38;;;;;;;7.43;100.00;100939.50;5072849;28;20025;-35
2022/11/28 01:26:39;;;;;;;3.42;2.97;;;;;;;7.43;100.00;100938.69;5073348;28;20110;-34
2022/11/28 01:29:06;;;;;;;5.45;3.42;;;;;;;7.43;100.00;100936.00;5072936;28;20124;-35
2022/11/28 01:31:31;;;;;;;3.85;3.00;;;;;;;7.43;100.00;100944.91;5072843;28;20047;-35
2022/11/28 01:33:57;;;;;;;5.22;3.17;;;;;;;7.40;100.00;100942.63;5072097;28;20441;-35
2022/11/28 01:36:23;;;;;;;3.40;2.90;;;;;;;7.36;100.00;100948.63;5072636;28;20039;-35
2022/11/28 01:38:49;;;;;;;;;;;;;;;7.38;100.00;100952.75;5073263;28;20032;-34
2022/11/28 01:41:16;;;;;;;3.53;3.00;;;;;;;7.31;100.00;100945.72;5072784;28;20307;-34
2022/11/28 01:43:55;;;;;;;4.25;3.08;;;;;;;7.20;100.00;100942.63;5072668;28;20107;-35
2022/11/28 01:46:21;;;;;;;3.58;3.20;;;;;;;7.17;100.00;100939.50;5072187;28;20031;-35
2022/11/28 01:48:46;;;;;;;5.20;3.00;;;;;;;7.20;100.00;100950.69;5072775;28;20037;-35
2022/11/28 01:51:12;;;;;;;4.77;3.70;;;;;;;7.12;100.00;100932.06;5072470;28;20491;-34
2022/11/28 01:53:41;;;;;;;4.75;3.28;;;;;;;7.14;100.00;100948.00;5073097;28;20074;-35
2022/11/28 01:56:27;;;;;;;6.28;3.70;;;;;;;7.17;100.00;100943.03;5072238;28;20407;-35
2022/11/28 01:58:58;;;;;;;4.13;3.38;;;;;;;7.13;100.00;100944.50;5072073;28;20036;-35
2022/11/28 02:01:24;;;;;;;4.25;3.58;;;;;;;7.07;100.00;100933.69;5072351;28;20067;-35
2022/11/28 02:03:51;;;;;;;5.10;3.53;;;;;;;7.10;100.00;100939.50;5075140;28;20468;-35
2022/11/28 02:06:20;;;;;;;4.15;3.00;;;;;;;7.10;100.00;100934.13;5075848;28;20033;-34
2022/11/28 02:08:49;;;;;;;5.20;3.10;;;;;;;7.11;100.00;100940.34;5076626;28;20032;-34
2022/11/28 02:11:37;;;;;;;3.83;3.42;;;;;;;7.08;100.00;100948.81;5075797;28;20033;-35
2022/11/28 02:14:24;;;;;;;4.90;3.05;;;;;;;7.04;100.00;100929.59;5076544;28;20035;-35
2022/11/28 02:17:09;;;;;;;4.43;3.42;;;;;;;7.05;100.00;100927.72;5076264;28;20028;-35
2022/11/28 02:20:02;;;;;;;4.32;3.00;;;;;;;7.03;100.00;100933.31;5076346;28;20048;-34
2022/11/28 02:22:40;;;;;;;4.55;3.05;;;;;;;7.01;100.00;100927.28;5076289;28;20334;-35
2022/11/28 02:25:08;;;;;;;3.65;2.97;;;;;;;7.00;100.00;100925.66;5075970;28;20032;-35
2022/11/28 02:27:51;;;;;;;4.30;3.22;;;;;;;6.99;100.00;100926.69;5075687;28;20443;-35
2022/11/28 02:30:28;;;;;;;4.38;3.25;;;;;;;6.99;100.00;100920.47;5075877;28;20035;-35
2022/11/28 02:33:00;;;;;;;4.10;3.22;;;;;;;6.97;100.00;100916.13;5075576;28;20078;-34
2022/11/28 02:35:40;;;;;;;4.88;3.33;;;;;;;6.97;100.00;100924.19;5075672;28;20024;-35
2022/11/28 02:38:13;;;;;;;4.65;3.22;;;;;;;6.98;100.00;100919.66;5075633;28;20028;-35
2022/11/28 02:41:06;;;;;;;3.65;2.95;;;;;;;6.97;100.00;100921.50;5075502;28;20035;-35
2022/11/28 02:43:50;;;;;;;5.57;3.45;;;;;;;6.90;100.00;100915.28;5074856;28;20036;-35
2022/11/28 02:46:21;;;;;;;3.65;3.30;;;;;;;6.97;100.00;100917.97;5074550;28;20116;-35
2022/11/28 02:48:55;;;;;;;6.93;3.28;;;;;;;6.96;100.00;100925.22;5075424;28;20112;-35
2022/11/28 02:51:32;;;;;;;4.15;3.28;;;;;;;6.96;100.00;100914.47;5075823;28;20028;-35
2022/11/28 02:54:00;;;;;;;5.00;3.22;;;;;;;6.92;100.00;100910.53;5073904;28;20025;-35
2022/11/28 02:56:26;;;;;;;5.70;3.50;;;;;;;6.89;100.00;100916.34;5075476;28;20035;-35
2022/11/28 02:58:52;;;;;;;7.32;3.75;;;;;;;6.89;100.00;100915.50;5075209;28;20025;-34
2022/11/28 03:01:21;;;;;;;3.70;3.00;;;;;;;6.88;100.00;100911.13;5075677;28;20162;-35
2022/11/28 03:03:50;;;;;;;4.45;3.47;;;;;;;6.86;100.00;100911.34;5075135;28;20509;-35
2022/11/28 03:06:45;;;;;;;4.45;3.22;;;;;;;6.88;100.00;100909.31;5075080;28;20020;-34
2022/11/28 03:09:29;;;;;;;4.03;3.30;;;;;;;6.85;100.00;100901.63;5075693;28;20056;-35
2022/11/28 03:12:07;;;;;;;4.85;3.40;;;;;;;6.75;100.00;100889.63;5074851;28;20028;-34
2022/11/28 03:14:56;;;;;;;3.83;3.25;;;;;;;6.83;100.00;100901.03;5073675;28;20468;-34
2022/11/28 03:17:40;;;;;;;4.65;3.40;;;;;;;6.83;100.00;100901.03;5075285;28;20020;-35
2022/11/28 03:20:33;;;;;;;3.47;3.10;;;;;;;6.84;100.00;100893.78;5075456;28;20068;-34
2022/11/28 03:23:15;;;;;;;4.10;2.90;;;;;;;6.86;100.00;100905.16;5074385;28;20490;-36
2022/11/28 03:25:55;;;;;;;4.53;2.90;;;;;;;6.83;100.00;100909.09;5075334;28;20035;-35
2022/11/28 03:28:24;;;;;;;4.95;3.00;;;;;;;6.82;100.00;100910.09;5074768;28;20059;-35
2022/11/28 03:30:56;;;;;;;3.97;3.10;;;;;;;6.80;100.00;100901.44;5074742;28;20025;-35
2022/11/28 03:33:24;;;;;;;3.55;2.97;;;;;;;6.80;100.00;100909.50;5074541;28;20029;-35
2022/11/28 03:35:57;;;;;;;4.65;3.15;;;;;;;6.81;100.00;100905.75;5074212;28;20431;-34
2022/11/28 03:38:43;;;;;;;5.18;2.80;;;;;;;6.84;100.00;100896.47;5074409;28;20028;-34
2022/11/28 03:41:20;;;;;;;6.28;3.90;;;;;;;6.86;100.00;100900.59;5074253;28;20048;-34
2022/11/28 03:43:51;;;;;;;3.00;2.70;;;;;;;6.85;100.00;100890.88;5074511;28;20024;-34
2022/11/28 03:46:20;;;;;;;4.97;3.08;;;;;;;6.82;100.00;100896.66;5074997;28;20024;-35
2022/11/28 03:48:49;;;;;;;5.53;3.00;;;;;;;6.83;100.00;100898.34;5072969;28;20028;-35
2022/11/28 03:51:19;;;;;;;4.88;3.30;;;;;;;6.84;100.00;100908.06;5074143;28;20031;-35
2022/11/28 03:53:52;;;;;;;4.25;3.10;;;;;;;6.76;100.00;100883.22;5074864;28;20377;-34
2022/11/28 03:56:32;;;;;;;3.92;2.80;;;;;;;6.85;100.00;100900.81;5074056;28;20025;-34
2022/11/28 03:59:06;;;;;;;4.82;3.05;;;;;;;6.77;100.00;100879.50;5073957;28;20036;-35
2022/11/28 04:02:05;;;;;;;4.82;3.10;;;;;;;6.86;100.00;100903.28;5074406;28;20388;-35
2022/11/28 04:04:46;;;;;;;5.45;3.30;;;;;;;6.84;100.00;100908.06;5074298;28;20116;-35
2022/11/28 04:07:43;;;;;;;3.67;3.05;;;;;;;6.85;100.00;100904.31;5073952;28;20029;-35
2022/11/28 04:10:33;;;;;;;4.75;3.10;;;;;;;6.85;100.00;100896.25;5073521;28;20036;-35
2022/11/28 04:13:07;;;;;;;4.90;3.00;;;;;;;6.86;100.00;100905.16;5074263;28;20032;-35
2022/11/28 04:15:51;;;;;;;3.60;2.70;;;;;;;6.87;100.00;100902.25;5074290;28;20078;-35
2022/11/28 04:18:24;;;;;;;3.72;2.95;;;;;;;6.84;100.00;100897.31;5073714;28;20056;-35
2022/11/28 04:21:00;;;;;;;3.58;2.75;;;;;;;6.86;100.00;100903.28;5074256;28;20025;-35
2022/11/28 04:23:26;;;;;;;3.85;3.08;;;;;;;6.80;100.00;100890.69;5074340;28;20043;-35
2022/11/28 04:26:00;;;;;;;3.72;3.10;;;;;;;6.88;100.00;100906.63;5073712;28;20349;-35
2022/11/28 04:28:30;;;;;;;5.60;2.95;;;;;;;6.79;100.00;100891.72;5074133;28;20134;-35
2022/11/28 04:31:00;;;;;;;5.72;3.63;;;;;;;6.85;100.00;100904.31;5073490;28;20028;-35
2022/11/28 04:33:30;;;;;;;5.45;3.58;;;;;;;6.85;100.00;100903.50;5073617;28;20427;-35
2022/11/28 04:35:57;;;;;;;3.63;3.00;;;;;;;6.80;100.00;100903.28;5073862;28;20029;-35
2022/11/28 04:38:25;;;;;;;5.28;3.33;;;;;;;6.87;100.00;100909.50;5073766;28;20077;-35
2022/11/28 04:41:00;;;;;;;3.80;2.70;;;;;;;6.86;100.00;100905.97;5073233;28;20028;-35
2022/11/28 04:43:32;;;;;;;3.50;2.75;;;;;;;6.86;100.00;100905.97;5073366;28;20494;-35
2022/11/28 04:46:08;;;;;;;4.25;3.05;;;;;;;6.90;100.00;100909.09;5073729;28;20021;-35
2022/11/28 04:48:33;;;;;;;4.65;3.20;;;;;;;6.85;100.00;100906.19;5073711;28;20021;-35
2022/11/28 04:51:05;;;;;;;3.80;3.20;;;;;;;6.86;100.00;100905.97;5073384;28;20406;-35
2022/11/28 04:53:36;;;;;;;4.88;3.45;;;;;;;6.83;100.00;100895.66;5072759;28;20039;-35
2022/11/28 04:56:10;;;;;;;3.33;2.72;;;;;;;6.84;100.00;100901.84;5071757;28;20035;-35
2022/11/28 04:58:43;;;;;;;4.30;3.30;;;;;;;6.85;100.00;100901.63;5073053;28;20024;-35
2022/11/28 05:01:15;;;;;;;4.25;3.13;;;;;;;6.86;100.00;100903.28;5072711;28;20131;-35
2022/11/28 05:03:40;;;;;;;4.70;3.10;;;;;;;6.87;100.00;100906.81;5072923;28;20021;-35
2022/11/28 05:06:07;;;;;;;3.85;3.08;;;;;;;6.87;100.00;100901.41;5072954;28;20016;-35
2022/11/28 05:08:33;;;;;;;4.00;3.38;;;;;;;6.85;100.00;100898.94;5073272;28;20032;-35
2022/11/28 05:10:58;;;;;;;4.17;3.30;;;;;;;6.84;100.00;100908.06;5072951;28;20138;-35
2022/11/28 05:13:23;;;;;;;3.80;3.27;;;;;;;6.85;100.00;100915.06;5072811;28;20449;-35
2022/11/28 05:15:49;;;;;;;5.40;2.97;;;;;;;6.87;100.00;100914.88;5072760;28;20032;-35
2022/11/28 05:18:14;;;;;;;3.90;3.30;;;;;;;6.88;100.00;100906.63;5072917;28;20068;-35
2022/11/28 05:20:40;;;;;;;3.83;3.53;;;;;;;6.86;100.00;100914.03;5072823;28;20024;-35
2022/11/28 05:23:05;;;;;;;3.42;3.13;;;;;;;6.74;100.00;100899.56;5072998;28;20035;-35
2022/11/28 05:25:31;;;;;;;5.18;3.60;;;;;;;6.88;100.00;100917.38;5072965;28;20036;-35
2022/11/28 05:27:56;;;;;;;3.95;3.35;;;;;;;6.91;100.00;100924.19;5072879;28;20447;-35
2022/11/28 05:30:21;;;;;;;3.93;3.30;;;;;;;6.94;100.00;100919.22;5072875;28;20035;-35
2022/11/28 05:32:47;;;;;;;4.20;3.40;;;;;;;6.92;100.00;100917.75;5073363;28;20406;-35
2022/11/28 05:35:12;;;;;;;4.20;3.70;;;;;;;6.91;100.00;100922.31;5072601;28;20123;-35
2022/11/28 05:37:38;;;;;;;3.90;3.50;;;;;;;6.85;100.00;100909.69;5074214;28;20033;-35
2022/11/28 05:40:04;;;;;;;4.30;3.90;;;;;;;6.91;100.00;100914.25;5076873;28;20396;-35
2022/11/28 05:42:34;;;;;;;4.20;3.75;;;;;;;6.93;100.00;100922.97;5076499;28;20449;-35
2022/11/28 05:44:59;;;;;;;4.20;3.60;;;;;;;6.89;100.00;100916.34;5076743;28;20484;-35
2022/11/28 05:47:25;;;;;;;5.57;3.93;;;;;;;6.94;100.00;100929.97;5075212;28;20064;-35
2022/11/28 05:49:50;;;;;;;4.20;3.80;;;;;;;6.90;100.00;100915.28;5076825;28;20029;-35
2022/11/28 05:52:16;;;;;;;5.18;4.50;;;;;;;6.98;100.00;100922.34;5076159;28;20028;-35
2022/11/28 05:54:41;;;;;;;5.43;4.00;;;;;;;6.98;100.00;100927.72;5075684;28;20037;-35
2022/11/28 05:57:06;;;;;;;4.20;3.80;;;;;;;6.97;100.00;100926.88;5076390;28;20095;-35
2022/11/28 05:59:32;;;;;;;5.97;4.37;;;;;;;6.97;100.00;100929.56;5076397;28;20467;-35
2022/11/28 06:01:58;;;;;;;4.65;4.25;;;;;;;6.90;100.00;100915.28;5076087;28;20066;-35
2022/11/28 06:04:23;;;;;;;3.95;3.65;;;;;;;6.96;100.00;100922.53;5074887;28;20392;-35
2022/11/28 06:06:51;;;;;;;5.20;3.77;;;;;;;6.99;100.00;100925.84;5076384;28;20028;-35
2022/11/28 06:09:16;;;;;;;4.32;3.92;;;;;;;6.89;100.00;100910.13;5076344;28;20125;-35
2022/11/28 06:11:42;;;;;;;4.30;3.90;;;;;;;6.96;100.00;100917.16;5076082;28;20485;-35
2022/11/28 06:14:08;;;;;;;4.33;3.80;;;;;;;7.00;100.00;100914.88;5075848;28;20134;-35
2022/11/28 06:16:34;;;;;;;5.15;4.00;;;;;;;6.99;100.00;100920.47;5075737;28;20028;-35
2022/11/28 06:19:02;;;;;;;5.55;5.05;;;;;;;6.90;100.00;100917.97;5076940;28;20060;-35
2022/11/28 06:21:28;;;;;;;4.70;4.28;;;;;;;6.99;100.00;100924.00;5075939;28;20040;-35
2022/11/28 06:23:55;;;;;;;4.43;4.03;;;;;;;6.99;100.00;100925.84;5075872;28;20036;-35
2022/11/28 06:26:22;;;;;;;4.97;4.57;;;;;;;6.98;100.00;100922.34;5075846;28;20507;-35
2022/11/28 06:28:48;;;;;;;5.47;4.78;;;;;;;7.00;100.00;100922.97;5076286;28;20024;-35
2022/11/28 06:31:19;;;;;;;4.82;4.43;;;;;;;7.00;100.00;100925.66;5075484;28;20029;-35
2022/11/28 06:33:44;;;;;;;4.95;4.55;;;;;;;7.02;100.00;100931.63;5075976;28;20051;-35
2022/11/28 06:36:11;;;;;;;5.07;4.60;;;;;;;7.00;100.00;100936.41;5075783;28;20032;-35
2022/11/28 06:38:37;;;;;;;4.63;4.22;;;;;;;7.02;100.00;100938.88;5076457;28;20032;-36
2022/11/28 06:41:06;;;;;;;5.10;4.70;;;;;;;7.00;100.00;100940.94;5074130;28;20071;-35
2022/11/28 06:43:31;;;;;;;5.55;5.05;;;;;;;7.02;100.00;100941.56;5075511;28;20115;-35
2022/11/28 06:45:56;;;;;;;5.93;4.50;;;;;;;7.02;100.00;100939.69;5075638;28;20087;-35
2022/11/28 06:48:22;;;;;;;4.43;4.03;;;;;;;6.89;100.00;100918.19;5075167;28;20042;-35
2022/11/28 06:50:48;;;;;;;5.30;4.80;;;;;;;7.04;100.00;100942.19;5075731;28;20021;-35
2022/11/28 06:53:14;;;;;;;5.68;4.97;;;;;;;7.04;100.00;100936.81;5075631;28;20116;-35
2022/11/28 06:55:40;;;;;;;5.43;4.97;;;;;;;7.06;100.00;100938.25;5075032;28;20024;-35
2022/11/28 06:58:05;;;;;;;5.57;5.07;;;;;;;7.07;100.00;100937.22;5075727;28;20127;-35
2022/11/28 07:00:31;;;;;;;5.15;4.65;;;;;;;7.07;100.00;100945.28;5075280;28;20388;-36
2022/11/28 07:02:57;;;;;;;5.32;4.82;;;;;;;7.10;100.00;100941.38;5075098;28;20392;-36
2022/11/28 07:05:26;;;;;;;5.55;5.05;;;;;;;7.02;100.00;100925.44;5075061;28;20055;-36
2022/11/28 07:07:52;;;;;;;5.30;4.80;;;;;;;7.09;100.00;100937.84;5075566;28;20112;-36
2022/11/28 07:10:17;;;;;;;4.78;4.38;;;;;;;7.11;100.00;100937.63;5075086;28;20437;-36
2022/11/28 07:12:42;;;;;;;6.30;5.13;;;;;;;7.02;100.00;100925.44;5075059;28;20024;-36
2022/11/28 07:15:08;;;;;;;6.00;5.40;;;;;;;7.11;100.00;100948.41;5074694;28;20032;-36
2022/11/28 07:17:34;;;;;;;5.50;5.00;;;;;;;7.11;100.00;100951.09;5075095;28;20098;-36
2022/11/28 07:19:59;;;;;;;5.63;5.13;;;;;;;7.10;100.00;100954.81;5074910;28;20033;-36
2022/11/28 07:22:25;;;;;;;5.40;4.90;;;;;;;7.08;100.00;100955.03;5075361;28;20033;-36
2022/11/28 07:24:51;;;;;;;5.57;5.07;;;;;;;7.10;100.00;100947.56;5075393;28;20292;-37
2022/11/28 07:27:16;;;;;;;5.47;5.07;;;;;;;7.08;100.00;100946.13;5075221;28;20031;-36
2022/11/28 07:29:42;;;;;;;6.85;5.38;;;;;;;7.10;100.00;100949.44;5074972;28;20472;-35
2022/11/28 07:32:07;;;;;;;6.20;5.57;;;;;;;7.14;100.00;100954.19;5074832;28;20025;-36
2022/11/28 07:34:33;;;;;;;6.13;5.53;;;;;;;7.12;100.00;100958.13;5075210;28;20036;-41
2022/11/28 07:36:58;;;;;;;6.88;6.22;;;;;;;7.10;100.00;100954.81;5073368;28;20081;-35
2022/11/28 07:39:24;;;;;;;6.50;5.90;;;;;;;7.13;100.00;100962.50;5075294;28;20102;-35
2022/11/28 07:41:50;;;;;;;6.30;5.70;;;;;;;7.11;100.00;100968.03;5074521;28;20112;-35
2022/11/28 07:44:18;;;;;;;6.53;5.55;;;;;;;7.13;100.00;100966.00;5074280;28;20491;-35
2022/11/28 07:46:44;;;;;;;6.43;5.82;;;;;;;7.08;100.00;100960.41;5074351;28;20028;-35
2022/11/28 07:49:11;;;;;;;7.40;6.75;;;;;;;7.15;100.00;100977.38;5074856;28;20024;-35
2022/11/28 07:51:37;;;;;;;6.47;5.88;;;;;;;7.08;100.00;100956.91;5074191;28;20128;-35
2022/11/28 07:54:03;;;;;;;6.37;5.77;;;;;;;7.15;100.00;100966.59;5074205;28;20055;-35
2022/11/28 07:56:31;;;;;;;7.03;6.32;;;;;;;7.14;100.00;100977.59;5074316;28;20094;-35
2022/11/28 07:58:58;;;;;;;6.63;6.03;;;;;;;7.02;100.00;100960.38;5074545;28;20045;-35
2022/11/28 08:01:31;;;;;;;6.68;6.07;;;;;;;7.15;100.00;100985.44;5073306;28;20028;-35
2022/11/28 08:03:58;;;;;;;6.97;6.38;;;;;;;7.13;100.00;100984.00;5073835;28;20036;-35
2022/11/28 08:06:24;;;;;;;;;;;;;;;7.20;100.00;100993.72;5074034;28;20032;-35
2022/11/28 08:08:52;;;;;;;6.90;6.30;;;;;;;7.19;100.00;100991.25;5073914;28;19915;-35
2022/11/28 08:11:19;;;;;;;7.30;6.60;;;;;;;7.08;100.00;100981.09;5074083;28;20032;-35
2022/11/28 08:13:45;;;;;;;7.45;6.85;;;;;;;7.16;100.00;100989.78;5074637;28;20044;-35
2022/11/28 08:16:14;;;;;;;8.48;6.80;;;;;;;7.14;100.00;100988.34;5073990;28;20103;-35
2022/11/28 08:18:40;;;;;;;7.20;6.50;;;;;;;7.19;100.00;100991.25;5074530;28;20444;-35
2022/11/28 08:21:15;;;;;;;8.30;6.75;;;;;;;7.21;100.00;100992.69;5074147;28;20020;-35
2022/11/28 08:23:42;;;;;;;7.90;7.20;;;;;;;7.23;100.00;100989.81;5073979;28;20032;-35
2022/11/28 08:26:10;;;;;;;7.78;6.97;;;;;;;7.23;100.00;100997.88;5073777;28;20028;-35
2022/11/28 08:28:36;;;;;;;7.45;6.85;;;;;;;7.18;100.00;100990.41;5073261;28;20028;-35
2022/11/28 08:31:15;;;;;;;7.53;6.75;;;;;;;7.27;100.00;100996.44;5073930;28;20040;-35
2022/11/28 08:33:41;;;;;;;7.68;7.00;;;;;;;7.24;100.00;100994.16;5073749;28;20039;-35
2022/11/28 08:36:08;;;;;;;;;;;;;;;7.31;100.00;100991.44;5073807;28;20078;-35
2022/11/28 08:38:33;;;;;;;7.85;6.95;;;;;;;7.29;100.00;100999.72;5073058;28;19981;-35
2022/11/28 08:41:03;;;;;;;7.40;6.63;;;;;;;7.31;100.00;101003.03;5073574;28;20063;-35
2022/11/28 08:43:29;;;;;;;7.70;7.00;;;;;;;7.32;100.00;101003.84;5073496;28;20028;-35
2022/11/28 08:45:54;;;;;;;7.57;6.77;;;;;;;7.35;100.00;101003.47;5073620;28;20039;-35
2022/11/28 08:48:20;;;;;;;7.93;7.23;;;;;;;7.37;100.00;100998.69;5073501;28;20243;-35
2022/11/28 08:50:46;;;;;;;8.30;7.50;;;;;;;7.33;100.00;101000.97;5071851;28;20040;-35
2022/11/28 08:53:11;;;;;;;8.60;7.80;;;;;;;7.37;100.00;100999.53;5073589;28;20388;-36
2022/11/28 08:55:40;;;;;;;8.67;7.87;;;;;;;7.38;100.00;101005.75;5073134;28;20028;-36
2022/11/28 08:58:05;;;;;;;8.45;7.63;;;;;;;7.39;100.00;101008.22;5073386;28;20035;-36
2022/11/28 09:00:31;;;;;;;10.20;8.33;;;;;;;7.40;100.00;100998.28;5073110;28;20028;-36
2022/11/28 09:02:56;;;;;;;8.60;7.70;;;;;;;7.42;100.00;101005.13;5073053;28;20110;-36
2022/11/28 09:05:21;;;;;;;8.83;7.93;;;;;;;7.40;100.00;100991.03;5071616;28;20029;-36
2022/11/28 09:07:47;;;;;;;11.10;8.30;;;;;;;7.44;100.00;101002.22;5072354;28;20033;-36
2022/11/28 09:10:12;;;;;;;9.07;8.18;;;;;;;7.47;100.00;100994.56;5072877;28;20461;-36
2022/11/28 09:12:37;;;;;;;10.87;9.13;;;;;;;7.49;100.00;101002.44;5073133;28;20032;-36
2022/11/28 09:15:03;;;;;;;9.60;8.43;;;;;;;7.50;100.00;101004.09;5072859;28;20047;-35
2022/11/28 09:17:29;;;;;;;8.73;7.72;;;;;;;7.53;100.00;101006.38;5072737;28;20377;-35
2022/11/28 09:19:54;;;;;;;10.93;9.23;;;;;;;7.49;100.00;101003.25;5072811;28;20025;-35
2022/11/28 09:22:19;;;;;;;10.10;8.67;;;;;;;7.55;100.00;101011.53;5073459;28;20063;-35
2022/11/28 09:24:44;;;;;;;10.70;9.43;;;;;;;7.54;100.00;101009.88;5072717;28;20452;-35
2022/11/28 09:27:10;;;;;;;9.33;8.23;;;;;;;7.55;100.00;101012.38;5072544;28;20021;-35
2022/11/28 09:29:35;;;;;;;10.10;9.10;;;;;;;7.57;100.00;101022.94;5072988;28;20078;-35
2022/11/28 09:32:00;;;;;;;10.27;9.27;;;;;;;7.59;100.00;101021.69;5072946;28;20024;-35
2022/11/28 09:34:26;;;;;;;11.77;8.97;;;;;;;7.61;100.00;101016.94;5073244;28;20048;-35
2022/11/28 09:36:51;;;;;;;9.38;8.20;;;;;;;7.63;100.00;101020.25;5072316;28;20024;-35
2022/11/28 09:39:17;;;;;;;10.67;9.10;;;;;;;7.65;100.00;101020.84;5073380;28;20028;-35
2022/11/28 09:41:48;;;;;;;9.40;7.97;;;;;;;7.61;100.00;101005.31;5072866;28;20091;-35
2022/11/28 09:44:25;;;;;;;8.80;7.90;;;;;;;7.70;100.00;101018.38;5072920;28;20437;-35
2022/11/28 09:46:57;;;;;;;9.43;8.38;;;;;;;7.61;100.00;101011.56;5072499;28;20036;-35
2022/11/28 09:49:48;;;;;;;9.30;8.38;;;;;;;7.64;100.00;101007.59;5072367;28;20052;-35
2022/11/28 09:52:31;;;;;;;10.13;9.02;;;;;;;7.59;100.00;101008.22;5010521;28;20045;-35
2022/11/28 09:55:09;;;;;;;7.78;6.97;;;;;;;7.75;100.00;101033.88;5011019;28;20053;-35
2022/11/28 09:57:49;;;;;;;8.90;8.00;;;;;;;7.72;100.00;101026.25;4994223;28;20070;-36
2022/11/28 10:00:20;;;;;;;9.18;8.15;;;;;;;7.77;100.00;101031.84;5010548;28;20112;-36
2022/11/28 10:03:20;;;;;;;8.23;7.50;;;;;;;7.81;100.00;101024.16;5010956;28;20141;-36
2022/11/28 10:06:01;;;;;;;7.65;6.85;;;;;;;7.83;100.00;101025.63;4952530;29;20373;-36
2022/11/28 10:08:36;;;;;;;8.45;7.28;;;;;;;7.82;100.00;101023.13;4952358;29;20031;-36
2022/11/28 10:11:23;;;;;;;8.13;6.88;;;;;;;7.83;100.00;101020.22;4952435;29;20043;-35
2022/11/28 10:14:04;;;;;;;8.65;7.75;;;;;;;7.86;100.00;101025.22;4952695;29;20462;-34
2022/11/28 10:16:54;;;;;;;8.07;7.28;;;;;;;7.88;100.00;101016.91;4952273;29;20043;-34
2022/11/28 10:19:37;;;;;;;7.60;6.80;;;;;;;7.91;100.00;101032.66;4951626;29;20110;-35
2022/11/28 10:22:06;;;;;;;7.55;6.85;;;;;;;7.83;100.00;101006.75;4951995;29;20047;-34
2022/11/28 10:24:43;;;;;;;8.45;7.38;;;;;;;7.92;100.00;101018.97;4953803;28;20035;-34
2022/11/28 10:27:12;;;;;;;7.70;6.90;;;;;;;7.96;100.00;101019.41;4955488;29;20078;-35
2022/11/28 10:29:49;;;;;;;8.38;7.57;;;;;;;7.90;100.00;101014.81;4992692;28;20108;-35
2022/11/28 10:32:19;;;;;;;7.88;6.97;;;;;;;7.97;100.00;101021.03;5014194;28;20073;-35
2022/11/28 10:34:57;;;;;;;8.57;7.78;;;;;;;7.93;100.00;101003.66;5014143;28;20479;-36
2022/11/28 10:37:27;;;;;;;8.45;7.65;;;;;;;8.02;100.00;101017.72;5014175;28;20081;-35
2022/11/28 10:39:54;;;;;;;8.60;7.72;;;;;;;7.95;100.00;101001.56;5014252;28;20057;-35
2022/11/28 10:42:25;;;;;;;9.52;8.63;;;;;;;8.05;100.00;101025.38;5038954;28;20037;-35
2022/11/28 10:45:07;;;;;;;10.20;8.82;;;;;;;8.06;100.00;101018.97;5075881;28;20415;-35
2022/11/28 10:47:57;;;;;;;9.65;8.65;;;;;;;8.09;100.00;101024.75;5075578;28;20032;-35
2022/11/28 10:50:46;;;;;;;10.25;9.15;;;;;;;8.06;100.00;101013.59;5075228;28;20062;-35
2022/11/28 10:53:40;;;;;;;10.57;9.50;;;;;;;8.16;100.00;101033.66;5074699;28;20032;-35
2022/11/28 10:56:14;;;;;;;13.98;10.57;;;;;;;8.17;100.00;101029.09;5075846;28;20498;-35
2022/11/28 10:58:56;;;;;;;11.88;10.60;;;;;;;8.17;100.00;101034.47;5075694;28;20025;-35
2022/11/28 11:01:21;;;;;;;11.93;10.55;;;;;;;8.18;100.00;101026.19;5075012;28;20060;-35
2022/11/28 11:03:47;;;;;;;13.00;10.97;;;;;;;8.20;100.00;101031.38;5075399;28;20504;-35
2022/11/28 11:06:13;;;;;;;12.13;10.93;;;;;;;8.18;100.00;101026.19;5074818;28;20836;-35
2022/11/28 11:08:40;;;;;;;12.05;10.40;;;;;;;8.20;100.00;101025.97;5075395;28;20028;-35
2022/11/28 11:11:14;;;;;;;11.65;10.45;;;;;;;8.22;100.00;101030.09;5075790;28;20020;-35
2022/11/28 11:14:09;;;;;;;13.00;11.70;;;;;;;8.19;100.00;101027.81;5075749;28;20050;-35
2022/11/28 11:16:51;;;;;;;12.00;10.52;;;;;;;8.24;100.00;101035.28;5074959;28;20108;-35
2022/11/28 11:19:29;;;;;;;13.50;12.10;;;;;;;8.23;100.00;101020.97;5075484;28;20044;-35
2022/11/28 11:22:00;;;;;;;14.35;12.27;;;;;;;8.24;100.00;101019.13;5075174;28;20043;-35
2022/11/28 11:24:25;;;;;;;14.52;12.80;;;;;;;8.17;100.00;101008.38;5074825;28;20032;-35
2022/11/28 11:26:51;;;;;;;14.52;13.02;;;;;;;8.18;100.00;101001.09;5075137;28;20437;-35
2022/11/28 11:29:34;;;;;;;16.43;14.67;;;;;;;8.29;100.00;101015.78;5074450;28;20484;-35
2022/11/28 11:32:04;;;;;;;16.73;15.02;;;;;;;8.20;100.00;101007.13;5075189;28;20419;-35
2022/11/28 11:34:36;;;;;;;16.92;15.13;;;;;;;8.24;100.00;101005.63;5074011;28;20040;-35
2022/11/28 11:37:29;;;;;;;18.92;14.70;;;;;;;8.36;100.00;101022.84;5074187;28;20040;-35
2022/11/28 11:39:54;;;;;;;19.00;15.43;;;;;;;8.28;100.00;101014.97;5074666;28;20155;-35